PWSweather.com
Personal Weather Stations
Station Observations
DW0493
Castlewood Ranch, Castle Rock, CO

Castlewood RanchCastle Rock, CO

Lat: 39.36264, Lon: -104.79156

Elevation: 6608

Station Type: Davis Pro Vantage 2

http://www.castlerockweather.org

Latest ConditionsUpdated 5:50:03 AM MDT Monday, Jul 25, 2016
Currently Today's Max Today's Min Today's Average
Temperature 55.2°F12.9°C 58.0°F14.4°C 55.0°F12.8°C 56.7°F13.7°C
Dew Point 50.8°F10.4°C 53.0°F11.7°C 50.6°F10.3°C 51.9°F11.1°C
Winds 2.0 mph S3.2 kmh S 14.0 mph SSW22.5 kmh SSW - 4.5 mph 7.2 kmh
Wind Gusts 2.0 mph3.2 kmh 17.0 mph27.4 kmh - -
Humidity 85% 86% 82% 84%
Pressure 30.69 in1039.3 mb 30.93 in1047.4 mb 30.64 in1037.6 mb -
Hour Temp Dew Point Humidity Winds Wind Gusts Pressure Precip Precip Rate Daily Precip Total
05:50 AM 55.2°F12.9°C 50.8°F10.4°C 85% 2.0 mph S3.2 kmh S 2.0 mph3.2 kmh 30.69 in1039.3 mb 0.00 in0.0 mm 0.00 in0.0 mm 0.00 in0.0 mm
05:45 AM 55.0°F12.8°C 50.6°F10.3°C 85% 5.0 mph S8.0 kmh S 7.0 mph11.3 kmh 30.69 in1039.3 mb 0.00 in0.0 mm 0.00 in0.0 mm 0.00 in0.0 mm
05:40 AM 55.1°F12.8°C 50.7°F10.4°C 85% 3.0 mph S4.8 kmh S 3.0 mph4.8 kmh 30.69 in1039.3 mb 0.00 in0.0 mm 0.00 in0.0 mm 0.00 in0.0 mm
05:35 AM 55.3°F12.9°C 50.6°F10.3°C 84% 4.0 mph S6.4 kmh S 4.0 mph6.4 kmh 30.69 in1039.3 mb 0.00 in0.0 mm 0.00 in0.0 mm 0.00 in0.0 mm
05:30 AM 55.6°F13.1°C 50.9°F10.5°C 84% 3.0 mph S4.8 kmh S 5.0 mph8.0 kmh 30.77 in1042.0 mb 0.00 in0.0 mm 0.00 in0.0 mm 0.00 in0.0 mm
05:25 AM 55.9°F13.3°C 51.1°F10.6°C 84% 2.0 mph S3.2 kmh S 7.0 mph11.3 kmh 30.77 in1042.0 mb 0.00 in0.0 mm 0.00 in0.0 mm 0.00 in0.0 mm
05:20 AM 56.1°F13.4°C 51.0°F10.6°C 83% 3.0 mph S4.8 kmh S 5.0 mph8.0 kmh 30.74 in1041.0 mb 0.00 in0.0 mm 0.00 in0.0 mm 0.00 in0.0 mm
05:15 AM 56.4°F13.6°C 51.3°F10.7°C 83% 1.0 mph S1.6 kmh S 5.0 mph8.0 kmh 30.73 in1040.6 mb 0.00 in0.0 mm 0.00 in0.0 mm 0.00 in0.0 mm
05:10 AM 56.6°F13.7°C 51.5°F10.8°C 83% 3.0 mph S4.8 kmh S 3.0 mph4.8 kmh 30.75 in1041.3 mb 0.00 in0.0 mm 0.00 in0.0 mm 0.00 in0.0 mm
05:05 AM 56.8°F13.8°C 51.4°F10.8°C 82% 3.0 mph S4.8 kmh S 10.0 mph16.1 kmh 30.64 in1037.6 mb 0.00 in0.0 mm 0.00 in0.0 mm 0.00 in0.0 mm
05:00 AM 57.0°F13.9°C 51.6°F10.9°C 82% 4.0 mph S6.4 kmh S 7.0 mph11.3 kmh 30.71 in1040.0 mb 0.00 in0.0 mm 0.00 in0.0 mm 0.00 in0.0 mm
04:55 AM 57.3°F14.1°C 51.9°F11.1°C 82% 3.0 mph S4.8 kmh S 12.0 mph19.3 kmh 30.69 in1039.3 mb 0.00 in0.0 mm 0.00 in0.0 mm 0.00 in0.0 mm
04:50 AM 57.4°F14.1°C 52.0°F11.1°C 82% 4.0 mph S6.4 kmh S 4.0 mph6.4 kmh 30.69 in1039.3 mb 0.00 in0.0 mm 0.00 in0.0 mm 0.00 in0.0 mm
04:45 AM 57.4°F14.1°C 52.0°F11.1°C 82% 7.0 mph S11.3 kmh S 10.0 mph16.1 kmh 30.70 in1039.6 mb 0.00 in0.0 mm 0.00 in0.0 mm 0.00 in0.0 mm
04:40 AM 57.6°F14.2°C 52.2°F11.2°C 82% 6.0 mph S9.7 kmh S 14.0 mph22.5 kmh 30.70 in1039.6 mb 0.00 in0.0 mm 0.00 in0.0 mm 0.00 in0.0 mm
04:35 AM 57.7°F14.3°C 52.3°F11.3°C 82% 7.0 mph SSW11.3 kmh SSW 13.0 mph20.9 kmh 30.65 in1037.9 mb 0.00 in0.0 mm 0.00 in0.0 mm 0.00 in0.0 mm
04:30 AM 57.6°F14.2°C 52.2°F11.2°C 82% 6.0 mph SSW9.7 kmh SSW 10.0 mph16.1 kmh 30.81 in1043.3 mb 0.00 in0.0 mm 0.00 in0.0 mm 0.00 in0.0 mm
04:25 AM 57.5°F14.2°C 52.4°F11.3°C 83% 7.0 mph SSW11.3 kmh SSW 13.0 mph20.9 kmh 30.81 in1043.3 mb 0.00 in0.0 mm 0.00 in0.0 mm 0.00 in0.0 mm
04:20 AM 57.3°F14.1°C 52.2°F11.2°C 83% 5.0 mph S8.0 kmh S 14.0 mph22.5 kmh 30.81 in1043.3 mb 0.00 in0.0 mm 0.00 in0.0 mm 0.00 in0.0 mm
04:15 AM 57.3°F14.1°C 52.5°F11.4°C 84% 9.0 mph S14.5 kmh S 15.0 mph24.1 kmh 30.79 in1042.7 mb 0.00 in0.0 mm 0.00 in0.0 mm 0.00 in0.0 mm
04:10 AM 57.3°F14.1°C 52.5°F11.4°C 84% 11.0 mph S17.7 kmh S 15.0 mph24.1 kmh 30.79 in1042.7 mb 0.00 in0.0 mm 0.00 in0.0 mm 0.00 in0.0 mm
04:05 AM 57.4°F14.1°C 52.3°F11.3°C 83% 3.0 mph S4.8 kmh S 13.0 mph20.9 kmh 30.77 in1042.0 mb 0.00 in0.0 mm 0.00 in0.0 mm 0.00 in0.0 mm
04:00 AM 57.5°F14.2°C 52.4°F11.3°C 83% 4.0 mph SSE6.4 kmh SSE 14.0 mph22.5 kmh 30.79 in1042.7 mb 0.00 in0.0 mm 0.00 in0.0 mm 0.00 in0.0 mm
03:55 AM 57.7°F14.3°C 52.6°F11.4°C 83% 9.0 mph S14.5 kmh S 13.0 mph20.9 kmh 30.69 in1039.3 mb 0.00 in0.0 mm 0.00 in0.0 mm 0.00 in0.0 mm
03:50 AM 57.8°F14.3°C 52.7°F11.5°C 83% 10.0 mph SSW16.1 kmh SSW 14.0 mph22.5 kmh 30.74 in1041.0 mb 0.00 in0.0 mm 0.00 in0.0 mm 0.00 in0.0 mm
03:45 AM 57.9°F14.4°C 52.8°F11.6°C 83% 5.0 mph SSW8.0 kmh SSW 14.0 mph22.5 kmh 30.85 in1044.7 mb 0.00 in0.0 mm 0.00 in0.0 mm 0.00 in0.0 mm
03:40 AM 58.0°F14.4°C 52.9°F11.6°C 83% 14.0 mph S22.5 kmh S 17.0 mph27.4 kmh 30.84 in1044.4 mb 0.00 in0.0 mm 0.00 in0.0 mm 0.00 in0.0 mm
03:35 AM 58.0°F14.4°C 52.9°F11.6°C 83% 12.0 mph SSW19.3 kmh SSW 16.0 mph25.7 kmh 30.78 in1042.3 mb 0.00 in0.0 mm 0.00 in0.0 mm 0.00 in0.0 mm
03:29 AM 58.0°F14.4°C 52.9°F11.6°C 83% 7.0 mph S11.3 kmh S 17.0 mph27.4 kmh 30.78 in1042.3 mb 0.00 in0.0 mm 0.00 in0.0 mm 0.00 in0.0 mm
03:25 AM 58.0°F14.4°C 52.9°F11.6°C 83% 9.0 mph S14.5 kmh S 9.0 mph14.5 kmh 30.90 in1046.4 mb 0.00 in0.0 mm 0.00 in0.0 mm 0.00 in0.0 mm
03:20 AM 57.9°F14.4°C 52.8°F11.6°C 83% 14.0 mph SSW22.5 kmh SSW 15.0 mph24.1 kmh 30.76 in1041.7 mb 0.00 in0.0 mm 0.00 in0.0 mm 0.00 in0.0 mm
03:15 AM 57.7°F14.3°C 52.9°F11.6°C 84% 11.0 mph S17.7 kmh S 14.0 mph22.5 kmh 30.86 in1045.0 mb 0.00 in0.0 mm 0.00 in0.0 mm 0.00 in0.0 mm
03:10 AM 57.4°F14.1°C 52.6°F11.4°C 84% 11.0 mph S17.7 kmh S 11.0 mph17.7 kmh 30.86 in1045.0 mb 0.00 in0.0 mm 0.00 in0.0 mm 0.00 in0.0 mm
03:05 AM 57.1°F13.9°C 52.3°F11.3°C 84% 4.0 mph SSE6.4 kmh SSE 6.0 mph9.7 kmh 30.86 in1045.0 mb 0.00 in0.0 mm 0.00 in0.0 mm 0.00 in0.0 mm
03:00 AM 56.7°F13.7°C 52.3°F11.3°C 85% 7.0 mph SSE11.3 kmh SSE 10.0 mph16.1 kmh 30.68 in1038.9 mb 0.00 in0.0 mm 0.00 in0.0 mm 0.00 in0.0 mm
02:55 AM 56.5°F13.6°C 51.7°F10.9°C 84% 5.0 mph S8.0 kmh S 6.0 mph9.7 kmh 30.78 in1042.3 mb 0.00 in0.0 mm 0.00 in0.0 mm 0.00 in0.0 mm
02:50 AM 56.5°F13.6°C 51.7°F10.9°C 84% 2.0 mph S3.2 kmh S 3.0 mph4.8 kmh 30.78 in1042.3 mb 0.00 in0.0 mm 0.00 in0.0 mm 0.00 in0.0 mm
02:45 AM 56.4°F13.6°C 51.6°F10.9°C 84% 4.0 mph S6.4 kmh S 6.0 mph9.7 kmh 30.78 in1042.3 mb 0.00 in0.0 mm 0.00 in0.0 mm 0.00 in0.0 mm
02:40 AM 56.5°F13.6°C 51.7°F10.9°C 84% 2.0 mph S3.2 kmh S 3.0 mph4.8 kmh 30.81 in1043.3 mb 0.00 in0.0 mm 0.00 in0.0 mm 0.00 in0.0 mm
02:35 AM 56.7°F13.7°C 51.9°F11.1°C 84% 5.0 mph S8.0 kmh S 5.0 mph8.0 kmh 30.79 in1042.7 mb 0.00 in0.0 mm 0.00 in0.0 mm 0.00 in0.0 mm
02:30 AM 56.9°F13.8°C 52.1°F11.2°C 84% 4.0 mph S6.4 kmh S 7.0 mph11.3 kmh 30.79 in1042.7 mb 0.00 in0.0 mm 0.00 in0.0 mm 0.00 in0.0 mm
02:25 AM 56.5°F13.6°C 52.4°F11.3°C 86% 5.0 mph S8.0 kmh S 9.0 mph14.5 kmh 30.77 in1042.0 mb 0.00 in0.0 mm 0.00 in0.0 mm 0.00 in0.0 mm
02:20 AM 55.8°F13.2°C 51.7°F10.9°C 86% 5.0 mph S8.0 kmh S 10.0 mph16.1 kmh 30.77 in1042.0 mb 0.00 in0.0 mm 0.00 in0.0 mm 0.00 in0.0 mm
02:14 AM 55.1°F12.8°C 51.0°F10.6°C 86% 3.0 mph S4.8 kmh S 7.0 mph11.3 kmh 30.79 in1042.7 mb 0.00 in0.0 mm 0.00 in0.0 mm 0.00 in0.0 mm
02:10 AM 55.1°F12.8°C 51.0°F10.6°C 86% Calm Calm -- 30.85 in1044.7 mb 0.00 in0.0 mm 0.00 in0.0 mm 0.00 in0.0 mm
02:05 AM 55.3°F12.9°C 50.9°F10.5°C 85% Calm Calm -- 30.75 in1041.3 mb 0.00 in0.0 mm 0.00 in0.0 mm 0.00 in0.0 mm
02:00 AM 55.8°F13.2°C 51.1°F10.6°C 84% Calm Calm 3.0 mph4.8 kmh 30.73 in1040.6 mb 0.00 in0.0 mm 0.00 in0.0 mm 0.00 in0.0 mm
01:54 AM 56.1°F13.4°C 51.7°F10.9°C 85% 3.0 mph S4.8 kmh S 4.0 mph6.4 kmh 30.73 in1040.6 mb 0.00 in0.0 mm 0.00 in0.0 mm 0.00 in0.0 mm
01:50 AM 56.0°F13.3°C 51.2°F10.7°C 84% Calm Calm -- 30.73 in1040.6 mb 0.00 in0.0 mm 0.00 in0.0 mm 0.00 in0.0 mm
01:45 AM 56.3°F13.5°C 51.5°F10.8°C 84% Calm Calm -- 30.67 in1038.6 mb 0.00 in0.0 mm 0.00 in0.0 mm 0.00 in0.0 mm
01:39 AM 56.5°F13.6°C 52.1°F11.2°C 85% Calm Calm 6.0 mph9.7 kmh 30.67 in1038.6 mb 0.00 in0.0 mm 0.00 in0.0 mm 0.00 in0.0 mm
01:34 AM 55.8°F13.2°C 51.7°F10.9°C 86% 2.0 mph S3.2 kmh S 6.0 mph9.7 kmh 30.89 in1046.1 mb 0.00 in0.0 mm 0.00 in0.0 mm 0.00 in0.0 mm
01:29 AM 55.4°F13.0°C 51.0°F10.6°C 85% 3.0 mph S4.8 kmh S 5.0 mph8.0 kmh 30.68 in1038.9 mb 0.00 in0.0 mm 0.00 in0.0 mm 0.00 in0.0 mm
01:25 AM 55.7°F13.2°C 51.3°F10.7°C 85% 3.0 mph S4.8 kmh S 3.0 mph4.8 kmh 30.68 in1038.9 mb 0.00 in0.0 mm 0.00 in0.0 mm 0.00 in0.0 mm
01:20 AM 56.1°F13.4°C 51.7°F10.9°C 85% 2.0 mph S3.2 kmh S 2.0 mph3.2 kmh 30.93 in1047.4 mb 0.00 in0.0 mm 0.00 in0.0 mm 0.00 in0.0 mm
01:15 AM 56.4°F13.6°C 52.0°F11.1°C 85% Calm Calm -- 30.89 in1046.1 mb 0.00 in0.0 mm 0.00 in0.0 mm 0.00 in0.0 mm
01:10 AM 56.4°F13.6°C 52.0°F11.1°C 85% Calm Calm -- 30.84 in1044.4 mb 0.00 in0.0 mm 0.00 in0.0 mm 0.00 in0.0 mm
01:05 AM 56.2°F13.4°C 51.8°F11.0°C 85% 4.0 mph S6.4 kmh S 4.0 mph6.4 kmh 30.84 in1044.4 mb 0.00 in0.0 mm 0.00 in0.0 mm 0.00 in0.0 mm
01:00 AM 56.2°F13.4°C 51.8°F11.0°C 85% 5.0 mph S8.0 kmh S 10.0 mph16.1 kmh 30.84 in1044.4 mb 0.00 in0.0 mm 0.00 in0.0 mm 0.00 in0.0 mm
12:55 AM 56.2°F13.4°C 51.8°F11.0°C 85% 6.0 mph S9.7 kmh S 10.0 mph16.1 kmh 30.84 in1044.4 mb 0.00 in0.0 mm 0.00 in0.0 mm 0.00 in0.0 mm
12:50 AM 56.4°F13.6°C 52.0°F11.1°C 85% 3.0 mph S4.8 kmh S 4.0 mph6.4 kmh 30.78 in1042.3 mb 0.00 in0.0 mm 0.00 in0.0 mm 0.00 in0.0 mm
12:45 AM 56.6°F13.7°C 52.2°F11.2°C 85% Calm Calm 4.0 mph6.4 kmh 30.67 in1038.6 mb 0.00 in0.0 mm 0.00 in0.0 mm 0.00 in0.0 mm
12:40 AM 56.6°F13.7°C 52.5°F11.4°C 86% 3.0 mph S4.8 kmh S 6.0 mph9.7 kmh 30.67 in1038.6 mb 0.00 in0.0 mm 0.00 in0.0 mm 0.00 in0.0 mm
12:35 AM 56.6°F13.7°C 52.5°F11.4°C 86% 3.0 mph S4.8 kmh S 6.0 mph9.7 kmh 30.67 in1038.6 mb 0.00 in0.0 mm 0.00 in0.0 mm 0.00 in0.0 mm
12:30 AM 56.5°F13.6°C 52.4°F11.3°C 86% 3.0 mph S4.8 kmh S 8.0 mph12.9 kmh 30.67 in1038.6 mb 0.00 in0.0 mm 0.00 in0.0 mm 0.00 in0.0 mm
12:25 AM 56.4°F13.6°C 52.3°F11.3°C 86% 1.0 mph SSE1.6 kmh SSE 9.0 mph14.5 kmh 30.67 in1038.6 mb 0.00 in0.0 mm 0.00 in0.0 mm 0.00 in0.0 mm
12:20 AM 56.6°F13.7°C 52.5°F11.4°C 86% Calm Calm -- 30.69 in1039.3 mb 0.00 in0.0 mm 0.00 in0.0 mm 0.00 in0.0 mm
12:15 AM 56.8°F13.8°C 52.7°F11.5°C 86% 5.0 mph S8.0 kmh S 5.0 mph8.0 kmh 30.69 in1039.3 mb 0.00 in0.0 mm 0.00 in0.0 mm 0.00 in0.0 mm
12:10 AM 57.0°F13.9°C 52.9°F11.6°C 86% 9.0 mph S14.5 kmh S 10.0 mph16.1 kmh 30.81 in1043.3 mb 0.00 in0.0 mm 0.00 in0.0 mm 0.00 in0.0 mm
12:05 AM 57.1°F13.9°C 53.0°F11.7°C 86% 2.0 mph S3.2 kmh S 12.0 mph19.3 kmh 30.81 in1043.3 mb 0.00 in0.0 mm 0.00 in0.0 mm 0.00 in0.0 mm
12:00 AM 57.2°F14.0°C 52.7°F11.5°C 85% 7.0 mph S11.3 kmh S 9.0 mph14.5 kmh 30.76 in1041.7 mb 0.00 in0.0 mm 0.00 in0.0 mm 0.00 in0.0 mm